sensor_id;sensor_type;location;lat;lon;timestamp;P1;durP1;ratioP1;P2;durP2;ratioP2
5819;SDS011;2936;47.348;9.640;2022-09-13T00:01:33;3.20;;;2.85;;
5819;SDS011;2936;47.348;9.640;2022-09-13T00:04:01;3.08;;;2.97;;
5819;SDS011;2936;47.348;9.640;2022-09-13T00:06:29;4.20;;;2.70;;
5819;SDS011;2936;47.348;9.640;2022-09-13T00:08:58;3.30;;;3.10;;
5819;SDS011;2936;47.348;9.640;2022-09-13T00:11:26;2.50;;;2.40;;
5819;SDS011;2936;47.348;9.640;2022-09-13T00:13:54;2.90;;;2.80;;
5819;SDS011;2936;47.348;9.640;2022-09-13T00:16:23;4.53;;;2.30;;
5819;SDS011;2936;47.348;9.640;2022-09-13T00:18:51;1.67;;;1.67;;
5819;SDS011;2936;47.348;9.640;2022-09-13T00:21:20;2.10;;;2.00;;
5819;SDS011;2936;47.348;9.640;2022-09-13T00:23:48;3.92;;;3.00;;
5819;SDS011;2936;47.348;9.640;2022-09-13T00:26:17;3.00;;;2.80;;
5819;SDS011;2936;47.348;9.640;2022-09-13T00:28:47;2.20;;;2.10;;
5819;SDS011;2936;47.348;9.640;2022-09-13T00:31:15;2.43;;;2.33;;
5819;SDS011;2936;47.348;9.640;2022-09-13T00:33:43;11.20;;;2.77;;
5819;SDS011;2936;47.348;9.640;2022-09-13T00:36:10;2.70;;;2.60;;
5819;SDS011;2936;47.348;9.640;2022-09-13T00:38:39;2.97;;;2.65;;
5819;SDS011;2936;47.348;9.640;2022-09-13T00:41:08;2.70;;;2.50;;
5819;SDS011;2936;47.348;9.640;2022-09-13T00:43:42;4.47;;;2.57;;
5819;SDS011;2936;47.348;9.640;2022-09-13T00:46:10;7.30;;;3.50;;
5819;SDS011;2936;47.348;9.640;2022-09-13T00:48:39;4.20;;;3.30;;
5819;SDS011;2936;47.348;9.640;2022-09-13T00:51:06;5.80;;;3.27;;
5819;SDS011;2936;47.348;9.640;2022-09-13T00:53:35;5.63;;;3.30;;
5819;SDS011;2936;47.348;9.640;2022-09-13T00:56:04;3.77;;;2.60;;
5819;SDS011;2936;47.348;9.640;2022-09-13T00:58:35;2.78;;;2.67;;
5819;SDS011;2936;47.348;9.640;2022-09-13T01:01:04;4.25;;;3.08;;
5819;SDS011;2936;47.348;9.640;2022-09-13T01:03:34;4.15;;;2.45;;
5819;SDS011;2936;47.348;9.640;2022-09-13T01:06:03;4.40;;;2.60;;
5819;SDS011;2936;47.348;9.640;2022-09-13T01:08:32;3.08;;;2.88;;
5819;SDS011;2936;47.348;9.640;2022-09-13T01:11:01;3.00;;;2.80;;
5819;SDS011;2936;47.348;9.640;2022-09-13T01:13:29;2.10;;;1.90;;
5819;SDS011;2936;47.348;9.640;2022-09-13T01:15:57;5.40;;;1.98;;
5819;SDS011;2936;47.348;9.640;2022-09-13T01:18:26;1.90;;;1.80;;
5819;SDS011;2936;47.348;9.640;2022-09-13T01:21:09;4.53;;;1.93;;
5819;SDS011;2936;47.348;9.640;2022-09-13T01:23:52;2.10;;;1.67;;
5819;SDS011;2936;47.348;9.640;2022-09-13T01:26:42;2.33;;;1.60;;
5819;SDS011;2936;47.348;9.640;2022-09-13T01:29:28;1.80;;;1.63;;
5819;SDS011;2936;47.348;9.640;2022-09-13T01:32:03;2.27;;;2.17;;
5819;SDS011;2936;47.348;9.640;2022-09-13T01:34:35;1.80;;;1.70;;
5819;SDS011;2936;47.348;9.640;2022-09-13T01:37:15;2.80;;;1.63;;
5819;SDS011;2936;47.348;9.640;2022-09-13T01:39:51;1.50;;;1.50;;
5819;SDS011;2936;47.348;9.640;2022-09-13T01:42:26;5.20;;;1.80;;
5819;SDS011;2936;47.348;9.640;2022-09-13T01:45:01;1.80;;;1.70;;
5819;SDS011;2936;47.348;9.640;2022-09-13T01:47:32;1.60;;;1.60;;
5819;SDS011;2936;47.348;9.640;2022-09-13T01:50:05;4.30;;;1.80;;
5819;SDS011;2936;47.348;9.640;2022-09-13T01:52:35;2.92;;;1.70;;
5819;SDS011;2936;47.348;9.640;2022-09-13T01:55:09;1.97;;;1.87;;
5819;SDS011;2936;47.348;9.640;2022-09-13T01:57:40;1.60;;;1.50;;
5819;SDS011;2936;47.348;9.640;2022-09-13T02:00:10;3.13;;;1.47;;
5819;SDS011;2936;47.348;9.640;2022-09-13T02:02:40;2.30;;;1.50;;
5819;SDS011;2936;47.348;9.640;2022-09-13T02:05:10;1.87;;;1.53;;
5819;SDS011;2936;47.348;9.640;2022-09-13T02:07:40;1.70;;;1.60;;
5819;SDS011;2936;47.348;9.640;2022-09-13T02:10:09;4.97;;;2.73;;
5819;SDS011;2936;47.348;9.640;2022-09-13T02:12:38;3.87;;;1.80;;
5819;SDS011;2936;47.348;9.640;2022-09-13T02:15:07;1.47;;;1.47;;
5819;SDS011;2936;47.348;9.640;2022-09-13T02:17:36;1.67;;;1.63;;
5819;SDS011;2936;47.348;9.640;2022-09-13T02:20:07;1.63;;;1.50;;
5819;SDS011;2936;47.348;9.640;2022-09-13T02:22:37;1.70;;;1.70;;
5819;SDS011;2936;47.348;9.640;2022-09-13T02:25:09;2.30;;;1.60;;
5819;SDS011;2936;47.348;9.640;2022-09-13T02:27:36;9.80;;;4.13;;
5819;SDS011;2936;47.348;9.640;2022-09-13T02:30:06;1.90;;;1.80;;
5819;SDS011;2936;47.348;9.640;2022-09-13T02:32:35;1.87;;;1.80;;
5819;SDS011;2936;47.348;9.640;2022-09-13T02:35:06;5.00;;;1.70;;
5819;SDS011;2936;47.348;9.640;2022-09-13T02:37:37;3.35;;;1.90;;
5819;SDS011;2936;47.348;9.640;2022-09-13T02:40:06;1.80;;;1.70;;
5819;SDS011;2936;47.348;9.640;2022-09-13T02:42:37;2.17;;;2.07;;
5819;SDS011;2936;47.348;9.640;2022-09-13T02:45:08;2.30;;;1.57;;
5819;SDS011;2936;47.348;9.640;2022-09-13T02:47:38;2.30;;;2.20;;
5819;SDS011;2936;47.348;9.640;2022-09-13T02:50:13;1.50;;;1.50;;
5819;SDS011;2936;47.348;9.640;2022-09-13T02:52:45;11.83;;;2.03;;
5819;SDS011;2936;47.348;9.640;2022-09-13T02:55:15;1.60;;;1.60;;
5819;SDS011;2936;47.348;9.640;2022-09-13T02:57:51;1.53;;;1.53;;
5819;SDS011;2936;47.348;9.640;2022-09-13T03:00:21;2.10;;;2.00;;
5819;SDS011;2936;47.348;9.640;2022-09-13T03:02:48;2.80;;;1.83;;
5819;SDS011;2936;47.348;9.640;2022-09-13T03:05:19;1.43;;;1.43;;
5819;SDS011;2936;47.348;9.640;2022-09-13T03:07:46;1.80;;;1.70;;
5819;SDS011;2936;47.348;9.640;2022-09-13T03:10:14;2.13;;;1.63;;
5819;SDS011;2936;47.348;9.640;2022-09-13T03:15:27;3.40;;;1.50;;
5819;SDS011;2936;47.348;9.640;2022-09-13T03:18:00;4.67;;;1.80;;
5819;SDS011;2936;47.348;9.640;2022-09-13T03:20:36;2.10;;;1.60;;
5819;SDS011;2936;47.348;9.640;2022-09-13T03:23:18;2.20;;;2.10;;
5819;SDS011;2936;47.348;9.640;2022-09-13T03:25:58;2.45;;;1.60;;
5819;SDS011;2936;47.348;9.640;2022-09-13T03:28:33;3.67;;;1.80;;
5819;SDS011;2936;47.348;9.640;2022-09-13T03:31:02;1.60;;;1.60;;
5819;SDS011;2936;47.348;9.640;2022-09-13T03:33:33;2.27;;;1.90;;
5819;SDS011;2936;47.348;9.640;2022-09-13T03:36:07;2.63;;;1.73;;
5819;SDS011;2936;47.348;9.640;2022-09-13T03:38:38;2.20;;;1.80;;
5819;SDS011;2936;47.348;9.640;2022-09-13T03:41:08;3.77;;;2.30;;
5819;SDS011;2936;47.348;9.640;2022-09-13T03:43:37;2.27;;;1.93;;
5819;SDS011;2936;47.348;9.640;2022-09-13T03:46:07;2.73;;;1.90;;
5819;SDS011;2936;47.348;9.640;2022-09-13T03:48:35;1.90;;;1.80;;
5819;SDS011;2936;47.348;9.640;2022-09-13T03:51:04;2.23;;;2.10;;
5819;SDS011;2936;47.348;9.640;2022-09-13T03:53:33;4.60;;;1.63;;
5819;SDS011;2936;47.348;9.640;2022-09-13T03:56:10;3.13;;;2.20;;
5819;SDS011;2936;47.348;9.640;2022-09-13T03:58:37;1.77;;;1.67;;
5819;SDS011;2936;47.348;9.640;2022-09-13T04:01:05;1.90;;;1.80;;
5819;SDS011;2936;47.348;9.640;2022-09-13T04:03:34;2.20;;;2.10;;
5819;SDS011;2936;47.348;9.640;2022-09-13T04:06:01;2.03;;;1.93;;
5819;SDS011;2936;47.348;9.640;2022-09-13T04:08:29;8.50;;;2.00;;
5819;SDS011;2936;47.348;9.640;2022-09-13T04:10:58;1.67;;;1.67;;
5819;SDS011;2936;47.348;9.640;2022-09-13T04:13:26;2.90;;;1.50;;
5819;SDS011;2936;47.348;9.640;2022-09-13T04:15:53;1.73;;;1.63;;
5819;SDS011;2936;47.348;9.640;2022-09-13T04:18:21;2.50;;;1.77;;
5819;SDS011;2936;47.348;9.640;2022-09-13T04:20:54;2.10;;;1.90;;
5819;SDS011;2936;47.348;9.640;2022-09-13T04:23:22;1.80;;;1.70;;
5819;SDS011;2936;47.348;9.640;2022-09-13T04:25:49;1.90;;;1.80;;
5819;SDS011;2936;47.348;9.640;2022-09-13T04:28:19;1.80;;;1.70;;
5819;SDS011;2936;47.348;9.640;2022-09-13T04:30:46;1.75;;;1.65;;
5819;SDS011;2936;47.348;9.640;2022-09-13T04:33:14;1.67;;;1.60;;
5819;SDS011;2936;47.348;9.640;2022-09-13T04:35:42;2.60;;;2.07;;
5819;SDS011;2936;47.348;9.640;2022-09-13T04:38:09;1.90;;;1.80;;
5819;SDS011;2936;47.348;9.640;2022-09-13T04:40:37;5.17;;;1.70;;
5819;SDS011;2936;47.348;9.640;2022-09-13T04:43:04;1.80;;;1.70;;
5819;SDS011;2936;47.348;9.640;2022-09-13T04:45:33;1.93;;;1.83;;
5819;SDS011;2936;47.348;9.640;2022-09-13T04:48:00;1.70;;;1.60;;
5819;SDS011;2936;47.348;9.640;2022-09-13T04:50:28;2.17;;;1.77;;
5819;SDS011;2936;47.348;9.640;2022-09-13T04:52:56;3.10;;;2.03;;
5819;SDS011;2936;47.348;9.640;2022-09-13T04:55:23;1.83;;;1.73;;
5819;SDS011;2936;47.348;9.640;2022-09-13T04:57:54;1.90;;;1.80;;
5819;SDS011;2936;47.348;9.640;2022-09-13T05:00:22;2.60;;;2.40;;
5819;SDS011;2936;47.348;9.640;2022-09-13T05:02:54;1.90;;;1.80;;
5819;SDS011;2936;47.348;9.640;2022-09-13T05:05:22;2.88;;;2.00;;
5819;SDS011;2936;47.348;9.640;2022-09-13T05:07:50;2.20;;;2.00;;
5819;SDS011;2936;47.348;9.640;2022-09-13T05:10:17;2.13;;;2.03;;
5819;SDS011;2936;47.348;9.640;2022-09-13T05:12:44;7.23;;;2.20;;
5819;SDS011;2936;47.348;9.640;2022-09-13T05:15:12;3.60;;;1.77;;
5819;SDS011;2936;47.348;9.640;2022-09-13T05:17:39;3.50;;;2.17;;
5819;SDS011;2936;47.348;9.640;2022-09-13T05:20:09;3.40;;;2.00;;
5819;SDS011;2936;47.348;9.640;2022-09-13T05:22:36;4.30;;;1.57;;
5819;SDS011;2936;47.348;9.640;2022-09-13T05:25:04;3.50;;;1.97;;
5819;SDS011;2936;47.348;9.640;2022-09-13T05:27:31;1.70;;;1.60;;
5819;SDS011;2936;47.348;9.640;2022-09-13T05:29:59;6.10;;;1.87;;
5819;SDS011;2936;47.348;9.640;2022-09-13T05:32:26;1.87;;;1.73;;
5819;SDS011;2936;47.348;9.640;2022-09-13T05:34:53;6.53;;;1.80;;
5819;SDS011;2936;47.348;9.640;2022-09-13T05:37:22;17.33;;;2.20;;
5819;SDS011;2936;47.348;9.640;2022-09-13T05:39:49;3.30;;;3.10;;
5819;SDS011;2936;47.348;9.640;2022-09-13T05:42:17;3.23;;;2.70;;
5819;SDS011;2936;47.348;9.640;2022-09-13T05:44:44;7.63;;;2.20;;
5819;SDS011;2936;47.348;9.640;2022-09-13T05:47:11;12.70;;;2.17;;
5819;SDS011;2936;47.348;9.640;2022-09-13T05:49:39;1.80;;;1.70;;
5819;SDS011;2936;47.348;9.640;2022-09-13T05:52:06;2.67;;;2.47;;
5819;SDS011;2936;47.348;9.640;2022-09-13T05:54:35;4.73;;;2.00;;
5819;SDS011;2936;47.348;9.640;2022-09-13T05:57:02;9.67;;;1.83;;
5819;SDS011;2936;47.348;9.640;2022-09-13T05:59:30;6.90;;;2.53;;
5819;SDS011;2936;47.348;9.640;2022-09-13T06:01:57;1.97;;;1.87;;
5819;SDS011;2936;47.348;9.640;2022-09-13T06:04:25;1.90;;;1.80;;
5819;SDS011;2936;47.348;9.640;2022-09-13T06:06:52;3.00;;;1.80;;
5819;SDS011;2936;47.348;9.640;2022-09-13T06:09:19;1.90;;;1.80;;
5819;SDS011;2936;47.348;9.640;2022-09-13T06:11:48;2.63;;;1.87;;
5819;SDS011;2936;47.348;9.640;2022-09-13T06:14:15;2.40;;;1.80;;
5819;SDS011;2936;47.348;9.640;2022-09-13T06:16:42;1.80;;;1.70;;
5819;SDS011;2936;47.348;9.640;2022-09-13T06:19:10;8.67;;;1.53;;
5819;SDS011;2936;47.348;9.640;2022-09-13T06:21:37;2.30;;;1.90;;
5819;SDS011;2936;47.348;9.640;2022-09-13T06:24:05;3.10;;;1.70;;
5819;SDS011;2936;47.348;9.640;2022-09-13T06:26:32;7.27;;;3.03;;
5819;SDS011;2936;47.348;9.640;2022-09-13T06:29:01;1.70;;;1.60;;
5819;SDS011;2936;47.348;9.640;2022-09-13T06:31:28;4.17;;;1.93;;
5819;SDS011;2936;47.348;9.640;2022-09-13T06:33:56;4.03;;;1.87;;
5819;SDS011;2936;47.348;9.640;2022-09-13T06:36:24;8.13;;;2.57;;
5819;SDS011;2936;47.348;9.640;2022-09-13T06:38:51;1.77;;;1.67;;
5819;SDS011;2936;47.348;9.640;2022-09-13T06:41:19;3.57;;;1.40;;
5819;SDS011;2936;47.348;9.640;2022-09-13T06:43:50;1.50;;;1.40;;
5819;SDS011;2936;47.348;9.640;2022-09-13T06:46:19;1.63;;;1.53;;
5819;SDS011;2936;47.348;9.640;2022-09-13T06:48:47;4.40;;;1.70;;
5819;SDS011;2936;47.348;9.640;2022-09-13T06:51:14;4.50;;;1.70;;
5819;SDS011;2936;47.348;9.640;2022-09-13T06:53:42;1.53;;;1.43;;
5819;SDS011;2936;47.348;9.640;2022-09-13T06:56:10;1.47;;;1.37;;
5819;SDS011;2936;47.348;9.640;2022-09-13T06:58:39;1.50;;;1.40;;
5819;SDS011;2936;47.348;9.640;2022-09-13T07:01:10;1.70;;;1.60;;
5819;SDS011;2936;47.348;9.640;2022-09-13T07:03:40;6.73;;;1.80;;
5819;SDS011;2936;47.348;9.640;2022-09-13T07:06:08;3.13;;;1.30;;
5819;SDS011;2936;47.348;9.640;2022-09-13T07:08:36;6.23;;;1.70;;
5819;SDS011;2936;47.348;9.640;2022-09-13T07:11:04;2.83;;;1.23;;
5819;SDS011;2936;47.348;9.640;2022-09-13T07:13:31;2.50;;;1.60;;
5819;SDS011;2936;47.348;9.640;2022-09-13T07:16:02;2.30;;;1.43;;
5819;SDS011;2936;47.348;9.640;2022-09-13T07:18:30;2.57;;;1.30;;
5819;SDS011;2936;47.348;9.640;2022-09-13T07:20:59;1.50;;;1.40;;
5819;SDS011;2936;47.348;9.640;2022-09-13T07:23:28;3.00;;;1.50;;
5819;SDS011;2936;47.348;9.640;2022-09-13T07:25:55;1.40;;;1.30;;
5819;SDS011;2936;47.348;9.640;2022-09-13T07:28:26;2.70;;;1.47;;
5819;SDS011;2936;47.348;9.640;2022-09-13T07:30:54;2.53;;;1.40;;
5819;SDS011;2936;47.348;9.640;2022-09-13T07:33:23;2.33;;;1.90;;
5819;SDS011;2936;47.348;9.640;2022-09-13T07:35:54;4.00;;;1.60;;
5819;SDS011;2936;47.348;9.640;2022-09-13T07:38:23;8.83;;;1.40;;
5819;SDS011;2936;47.348;9.640;2022-09-13T07:40:53;1.70;;;1.60;;
5819;SDS011;2936;47.348;9.640;2022-09-13T07:43:22;10.57;;;2.20;;
5819;SDS011;2936;47.348;9.640;2022-09-13T07:45:55;4.10;;;1.20;;
5819;SDS011;2936;47.348;9.640;2022-09-13T07:48:23;6.90;;;1.50;;
5819;SDS011;2936;47.348;9.640;2022-09-13T07:51:00;2.17;;;2.07;;
5819;SDS011;2936;47.348;9.640;2022-09-13T07:53:29;2.70;;;1.50;;
5819;SDS011;2936;47.348;9.640;2022-09-13T07:56:00;2.77;;;1.43;;
5819;SDS011;2936;47.348;9.640;2022-09-13T07:58:28;1.67;;;1.20;;
5819;SDS011;2936;47.348;9.640;2022-09-13T08:00:57;1.40;;;1.30;;
5819;SDS011;2936;47.348;9.640;2022-09-13T08:03:27;2.43;;;1.63;;
5819;SDS011;2936;47.348;9.640;2022-09-13T08:05:54;3.53;;;1.37;;
5819;SDS011;2936;47.348;9.640;2022-09-13T08:08:21;2.30;;;1.33;;
5819;SDS011;2936;47.348;9.640;2022-09-13T08:10:50;4.53;;;1.57;;
5819;SDS011;2936;47.348;9.640;2022-09-13T08:13:17;5.63;;;1.40;;
5819;SDS011;2936;47.348;9.640;2022-09-13T08:15:44;1.40;;;1.30;;
5819;SDS011;2936;47.348;9.640;2022-09-13T08:18:12;1.60;;;1.50;;
5819;SDS011;2936;47.348;9.640;2022-09-13T08:20:40;2.80;;;1.30;;
5819;SDS011;2936;47.348;9.640;2022-09-13T08:23:08;1.30;;;1.20;;
5819;SDS011;2936;47.348;9.640;2022-09-13T08:25:36;2.37;;;1.60;;
5819;SDS011;2936;47.348;9.640;2022-09-13T08:28:05;6.30;;;1.47;;
5819;SDS011;2936;47.348;9.640;2022-09-13T08:30:33;4.80;;;1.77;;
5819;SDS011;2936;47.348;9.640;2022-09-13T08:33:01;7.00;;;1.60;;
5819;SDS011;2936;47.348;9.640;2022-09-13T08:35:29;2.67;;;1.50;;
5819;SDS011;2936;47.348;9.640;2022-09-13T08:37:57;4.20;;;1.60;;
5819;SDS011;2936;47.348;9.640;2022-09-13T08:40:26;5.00;;;2.07;;
5819;SDS011;2936;47.348;9.640;2022-09-13T08:42:57;2.90;;;1.50;;
5819;SDS011;2936;47.348;9.640;2022-09-13T08:45:26;2.30;;;1.30;;
5819;SDS011;2936;47.348;9.640;2022-09-13T08:47:55;1.90;;;1.20;;
5819;SDS011;2936;47.348;9.640;2022-09-13T08:50:25;2.50;;;1.33;;
5819;SDS011;2936;47.348;9.640;2022-09-13T08:53:04;1.43;;;1.33;;
5819;SDS011;2936;47.348;9.640;2022-09-13T08:55:36;4.33;;;1.40;;
5819;SDS011;2936;47.348;9.640;2022-09-13T08:58:07;3.00;;;1.30;;
5819;SDS011;2936;47.348;9.640;2022-09-13T09:00:40;1.83;;;1.40;;
5819;SDS011;2936;47.348;9.640;2022-09-13T09:03:17;1.53;;;1.43;;
5819;SDS011;2936;47.348;9.640;2022-09-13T09:05:46;4.93;;;1.40;;
5819;SDS011;2936;47.348;9.640;2022-09-13T09:08:15;5.30;;;1.30;;
5819;SDS011;2936;47.348;9.640;2022-09-13T09:10:45;2.63;;;1.70;;
5819;SDS011;2936;47.348;9.640;2022-09-13T09:13:14;1.87;;;1.20;;
5819;SDS011;2936;47.348;9.640;2022-09-13T09:15:46;1.40;;;1.30;;
5819;SDS011;2936;47.348;9.640;2022-09-13T09:18:17;2.53;;;1.60;;
5819;SDS011;2936;47.348;9.640;2022-09-13T09:20:45;1.30;;;1.20;;
5819;SDS011;2936;47.348;9.640;2022-09-13T09:23:14;8.03;;;1.40;;
5819;SDS011;2936;47.348;9.640;2022-09-13T09:25:43;3.47;;;1.40;;
5819;SDS011;2936;47.348;9.640;2022-09-13T09:28:11;2.27;;;1.30;;
5819;SDS011;2936;47.348;9.640;2022-09-13T09:30:41;1.60;;;1.50;;
5819;SDS011;2936;47.348;9.640;2022-09-13T09:33:23;1.97;;;1.20;;
5819;SDS011;2936;47.348;9.640;2022-09-13T09:35:54;1.50;;;1.27;;
5819;SDS011;2936;47.348;9.640;2022-09-13T09:38:31;5.23;;;1.10;;
5819;SDS011;2936;47.348;9.640;2022-09-13T09:41:00;2.87;;;1.03;;
5819;SDS011;2936;47.348;9.640;2022-09-13T09:43:31;8.17;;;1.70;;
5819;SDS011;2936;47.348;9.640;2022-09-13T09:46:00;2.30;;;1.10;;
5819;SDS011;2936;47.348;9.640;2022-09-13T09:48:33;2.20;;;1.00;;
5819;SDS011;2936;47.348;9.640;2022-09-13T09:51:03;6.20;;;1.40;;
5819;SDS011;2936;47.348;9.640;2022-09-13T09:53:34;3.80;;;1.13;;
5819;SDS011;2936;47.348;9.640;2022-09-13T09:56:19;2.50;;;1.07;;
5819;SDS011;2936;47.348;9.640;2022-09-13T09:58:47;1.77;;;1.00;;
5819;SDS011;2936;47.348;9.640;2022-09-13T10:01:16;3.33;;;1.60;;
5819;SDS011;2936;47.348;9.640;2022-09-13T10:03:50;2.37;;;1.80;;
5819;SDS011;2936;47.348;9.640;2022-09-13T10:06:19;5.50;;;1.60;;
5819;SDS011;2936;47.348;9.640;2022-09-13T10:08:47;5.50;;;1.60;;
5819;SDS011;2936;47.348;9.640;2022-09-13T10:11:20;4.40;;;1.47;;
5819;SDS011;2936;47.348;9.640;2022-09-13T10:13:57;1.27;;;1.17;;
5819;SDS011;2936;47.348;9.640;2022-09-13T10:16:26;5.37;;;1.73;;
5819;SDS011;2936;47.348;9.640;2022-09-13T10:18:57;3.33;;;1.70;;
5819;SDS011;2936;47.348;9.640;2022-09-13T10:21:41;5.30;;;1.23;;
5819;SDS011;2936;47.348;9.640;2022-09-13T10:24:14;2.47;;;1.40;;
5819;SDS011;2936;47.348;9.640;2022-09-13T10:26:43;2.80;;;1.33;;
5819;SDS011;2936;47.348;9.640;2022-09-13T10:29:12;1.93;;;1.50;;
5819;SDS011;2936;47.348;9.640;2022-09-13T10:31:41;6.50;;;1.40;;
5819;SDS011;2936;47.348;9.640;2022-09-13T10:34:12;2.90;;;1.43;;
5819;SDS011;2936;47.348;9.640;2022-09-13T10:36:42;9.53;;;1.53;;
5819;SDS011;2936;47.348;9.640;2022-09-13T10:39:14;2.50;;;1.43;;
5819;SDS011;2936;47.348;9.640;2022-09-13T10:41:47;1.50;;;1.40;;
5819;SDS011;2936;47.348;9.640;2022-09-13T10:44:21;2.10;;;1.60;;
5819;SDS011;2936;47.348;9.640;2022-09-13T10:46:50;7.50;;;1.60;;
5819;SDS011;2936;47.348;9.640;2022-09-13T10:49:38;3.20;;;1.30;;
5819;SDS011;2936;47.348;9.640;2022-09-13T10:52:23;3.60;;;1.33;;
5819;SDS011;2936;47.348;9.640;2022-09-13T10:54:51;3.40;;;1.60;;
5819;SDS011;2936;47.348;9.640;2022-09-13T10:57:31;7.67;;;1.50;;
5819;SDS011;2936;47.348;9.640;2022-09-13T10:59:59;4.40;;;1.50;;
5819;SDS011;2936;47.348;9.640;2022-09-13T11:02:34;3.57;;;1.27;;
5819;SDS011;2936;47.348;9.640;2022-09-13T11:05:10;2.43;;;1.50;;
5819;SDS011;2936;47.348;9.640;2022-09-13T11:07:43;2.40;;;1.33;;
5819;SDS011;2936;47.348;9.640;2022-09-13T11:10:15;1.93;;;1.20;;
5819;SDS011;2936;47.348;9.640;2022-09-13T11:12:45;2.00;;;1.20;;
5819;SDS011;2936;47.348;9.640;2022-09-13T11:15:18;3.37;;;1.20;;
5819;SDS011;2936;47.348;9.640;2022-09-13T11:17:53;1.00;;;1.00;;
5819;SDS011;2936;47.348;9.640;2022-09-13T11:20:25;1.40;;;1.30;;
5819;SDS011;2936;47.348;9.640;2022-09-13T11:23:08;4.27;;;1.50;;
5819;SDS011;2936;47.348;9.640;2022-09-13T11:25:44;1.17;;;1.10;;
5819;SDS011;2936;47.348;9.640;2022-09-13T11:28:16;1.30;;;1.30;;
5819;SDS011;2936;47.348;9.640;2022-09-13T11:30:56;5.27;;;1.20;;
5819;SDS011;2936;47.348;9.640;2022-09-13T11:33:30;5.00;;;1.30;;
5819;SDS011;2936;47.348;9.640;2022-09-13T11:36:09;1.90;;;1.50;;
5819;SDS011;2936;47.348;9.640;2022-09-13T11:38:43;3.23;;;1.50;;
5819;SDS011;2936;47.348;9.640;2022-09-13T11:41:17;3.70;;;1.23;;
5819;SDS011;2936;47.348;9.640;2022-09-13T11:43:50;2.30;;;1.43;;
5819;SDS011;2936;47.348;9.640;2022-09-13T11:46:22;1.13;;;1.03;;
5819;SDS011;2936;47.348;9.640;2022-09-13T11:48:58;1.40;;;1.30;;
5819;SDS011;2936;47.348;9.640;2022-09-13T11:51:35;1.50;;;1.10;;
5819;SDS011;2936;47.348;9.640;2022-09-13T11:54:09;4.67;;;1.90;;
5819;SDS011;2936;47.348;9.640;2022-09-13T11:56:39;1.83;;;1.50;;
5819;SDS011;2936;47.348;9.640;2022-09-13T11:59:12;3.47;;;1.60;;
5819;SDS011;2936;47.348;9.640;2022-09-13T12:01:42;4.43;;;1.40;;
5819;SDS011;2936;47.348;9.640;2022-09-13T12:04:12;2.50;;;1.93;;
5819;SDS011;2936;47.348;9.640;2022-09-13T12:06:44;3.27;;;1.90;;
5819;SDS011;2936;47.348;9.640;2022-09-13T12:09:14;5.03;;;1.90;;
5819;SDS011;2936;47.348;9.640;2022-09-13T12:11:44;3.07;;;1.70;;
5819;SDS011;2936;47.348;9.640;2022-09-13T12:14:14;6.03;;;1.57;;
5819;SDS011;2936;47.348;9.640;2022-09-13T12:16:43;3.13;;;1.77;;
5819;SDS011;2936;47.348;9.640;2022-09-13T12:19:13;2.70;;;1.70;;
5819;SDS011;2936;47.348;9.640;2022-09-13T12:21:43;2.40;;;1.50;;
5819;SDS011;2936;47.348;9.640;2022-09-13T12:24:13;8.70;;;2.03;;
5819;SDS011;2936;47.348;9.640;2022-09-13T12:26:42;7.27;;;2.40;;
5819;SDS011;2936;47.348;9.640;2022-09-13T12:29:13;3.60;;;2.40;;
5819;SDS011;2936;47.348;9.640;2022-09-13T12:31:41;5.43;;;1.90;;
5819;SDS011;2936;47.348;9.640;2022-09-13T12:34:10;4.50;;;1.73;;
5819;SDS011;2936;47.348;9.640;2022-09-13T12:42:18;6.47;;;2.00;;
5819;SDS011;2936;47.348;9.640;2022-09-13T12:44:58;2.60;;;1.57;;
5819;SDS011;2936;47.348;9.640;2022-09-13T12:47:50;2.13;;;1.60;;
5819;SDS011;2936;47.348;9.640;2022-09-13T12:50:28;4.00;;;1.80;;
5819;SDS011;2936;47.348;9.640;2022-09-13T12:52:58;2.13;;;1.70;;
5819;SDS011;2936;47.348;9.640;2022-09-13T12:55:35;3.60;;;1.50;;
5819;SDS011;2936;47.348;9.640;2022-09-13T12:58:18;3.40;;;1.47;;
5819;SDS011;2936;47.348;9.640;2022-09-13T13:00:57;4.93;;;1.90;;
5819;SDS011;2936;47.348;9.640;2022-09-13T13:03:28;11.83;;;2.10;;
5819;SDS011;2936;47.348;9.640;2022-09-13T13:06:05;11.60;;;1.70;;
5819;SDS011;2936;47.348;9.640;2022-09-13T13:08:33;3.27;;;1.87;;
5819;SDS011;2936;47.348;9.640;2022-09-13T13:11:02;4.20;;;1.83;;
5819;SDS011;2936;47.348;9.640;2022-09-13T13:13:33;4.80;;;2.10;;
5819;SDS011;2936;47.348;9.640;2022-09-13T13:16:03;5.77;;;2.00;;
5819;SDS011;2936;47.348;9.640;2022-09-13T13:18:41;2.33;;;1.70;;
5819;SDS011;2936;47.348;9.640;2022-09-13T13:26:47;5.00;;;2.70;;
5819;SDS011;2936;47.348;9.640;2022-09-13T13:29:16;4.80;;;2.20;;
5819;SDS011;2936;47.348;9.640;2022-09-13T13:31:45;3.83;;;2.03;;
5819;SDS011;2936;47.348;9.640;2022-09-13T13:34:36;3.00;;;2.30;;
5819;SDS011;2936;47.348;9.640;2022-09-13T13:37:06;7.73;;;2.67;;
5819;SDS011;2936;47.348;9.640;2022-09-13T13:39:48;2.57;;;2.43;;
5819;SDS011;2936;47.348;9.640;2022-09-13T13:42:35;3.87;;;2.07;;
5819;SDS011;2936;47.348;9.640;2022-09-13T13:47:54;2.80;;;2.07;;
5819;SDS011;2936;47.348;9.640;2022-09-13T13:50:31;3.10;;;2.13;;
5819;SDS011;2936;47.348;9.640;2022-09-13T13:53:13;2.40;;;2.20;;
5819;SDS011;2936;47.348;9.640;2022-09-13T13:55:44;6.10;;;2.10;;
5819;SDS011;2936;47.348;9.640;2022-09-13T13:58:36;2.43;;;2.00;;
5819;SDS011;2936;47.348;9.640;2022-09-13T14:01:10;7.37;;;1.90;;
5819;SDS011;2936;47.348;9.640;2022-09-13T14:03:46;3.43;;;2.07;;
5819;SDS011;2936;47.348;9.640;2022-09-13T14:06:18;4.03;;;2.47;;
5819;SDS011;2936;47.348;9.640;2022-09-13T14:08:56;14.23;;;2.63;;
5819;SDS011;2936;47.348;9.640;2022-09-13T14:11:29;2.70;;;2.20;;
5819;SDS011;2936;47.348;9.640;2022-09-13T14:14:03;4.60;;;2.07;;
5819;SDS011;2936;47.348;9.640;2022-09-13T14:16:34;5.43;;;2.10;;
5819;SDS011;2936;47.348;9.640;2022-09-13T14:19:08;9.03;;;2.67;;
5819;SDS011;2936;47.348;9.640;2022-09-13T14:21:38;5.33;;;2.70;;
5819;SDS011;2936;47.348;9.640;2022-09-13T14:24:16;3.80;;;2.63;;
5819;SDS011;2936;47.348;9.640;2022-09-13T14:26:44;6.00;;;2.67;;
5819;SDS011;2936;47.348;9.640;2022-09-13T14:29:14;6.73;;;2.03;;
5819;SDS011;2936;47.348;9.640;2022-09-13T14:31:44;4.97;;;2.60;;
5819;SDS011;2936;47.348;9.640;2022-09-13T14:34:31;6.33;;;2.63;;
5819;SDS011;2936;47.348;9.640;2022-09-13T14:37:00;13.80;;;2.70;;
5819;SDS011;2936;47.348;9.640;2022-09-13T14:39:28;3.30;;;2.23;;
5819;SDS011;2936;47.348;9.640;2022-09-13T14:41:59;2.20;;;2.10;;
5819;SDS011;2936;47.348;9.640;2022-09-13T14:44:27;4.80;;;2.30;;
5819;SDS011;2936;47.348;9.640;2022-09-13T14:47:00;2.90;;;1.87;;
5819;SDS011;2936;47.348;9.640;2022-09-13T14:49:32;5.00;;;2.23;;
5819;SDS011;2936;47.348;9.640;2022-09-13T14:52:01;3.37;;;2.37;;
5819;SDS011;2936;47.348;9.640;2022-09-13T14:54:32;5.10;;;1.50;;
5819;SDS011;2936;47.348;9.640;2022-09-13T14:57:00;3.00;;;2.10;;
5819;SDS011;2936;47.348;9.640;2022-09-13T14:59:30;1.70;;;1.60;;
5819;SDS011;2936;47.348;9.640;2022-09-13T15:02:03;2.53;;;1.50;;
5819;SDS011;2936;47.348;9.640;2022-09-13T15:04:32;1.60;;;1.50;;
5819;SDS011;2936;47.348;9.640;2022-09-13T15:07:06;3.70;;;1.40;;
5819;SDS011;2936;47.348;9.640;2022-09-13T15:09:34;1.93;;;1.70;;
5819;SDS011;2936;47.348;9.640;2022-09-13T15:12:03;1.70;;;1.60;;
5819;SDS011;2936;47.348;9.640;2022-09-13T15:14:31;3.73;;;2.23;;
5819;SDS011;2936;47.348;9.640;2022-09-13T15:16:59;2.03;;;1.70;;
5819;SDS011;2936;47.348;9.640;2022-09-13T15:19:37;4.00;;;1.97;;
5819;SDS011;2936;47.348;9.640;2022-09-13T15:22:13;2.00;;;1.90;;
5819;SDS011;2936;47.348;9.640;2022-09-13T15:24:42;4.43;;;1.57;;
5819;SDS011;2936;47.348;9.640;2022-09-13T15:27:15;1.90;;;1.80;;
5819;SDS011;2936;47.348;9.640;2022-09-13T15:29:47;1.90;;;1.77;;
5819;SDS011;2936;47.348;9.640;2022-09-13T15:32:18;4.93;;;1.83;;
5819;SDS011;2936;47.348;9.640;2022-09-13T15:34:48;6.93;;;1.57;;
5819;SDS011;2936;47.348;9.640;2022-09-13T15:37:15;2.60;;;1.60;;
5819;SDS011;2936;47.348;9.640;2022-09-13T15:39:45;2.37;;;1.83;;
5819;SDS011;2936;47.348;9.640;2022-09-13T15:42:13;10.77;;;2.53;;
5819;SDS011;2936;47.348;9.640;2022-09-13T15:44:41;7.97;;;2.33;;
5819;SDS011;2936;47.348;9.640;2022-09-13T15:47:09;4.20;;;2.10;;
5819;SDS011;2936;47.348;9.640;2022-09-13T15:49:37;7.07;;;2.10;;
5819;SDS011;2936;47.348;9.640;2022-09-13T15:52:06;3.33;;;2.13;;
5819;SDS011;2936;47.348;9.640;2022-09-13T15:54:34;5.30;;;2.47;;